KFRR

Front Royal-Warren County Airport

Front Royal, Virginia, USA
METAR KFRR 260415Z AUTO 23007KT 10SM BKN090 OVC110 23/20 A2991 RMK AO1
Observed Flight Rules
May-26 @ 04:15 UTC (6 minutes ago) Visual Flight Rules
Wind Visibility Clouds
230° at 7 knots 10 miles
  • Broken at 9,000' AGL
  • Overcast at 11,000' AGL
Temperatures Readings
Current 23°C / 73°F
Dewpoint 20°C / 68°F
Humidity 83%
Altimeter 29.91" Hg
Pressure 1013 hPa
Elevation 216
METAR KFRR 260415Z AUTO 23007KT 10SM BKN090 OVC110 23/20 A2991 RMK AO1
Observed Flight Rules
May-26 @ 04:15 UTC
(6 minutes ago)
VFR
Wind Visibility
230° at 7 knots 10 miles
Clouds
  • Broken at 9,000' AGL
  • Overcast at 11,000' AGL
Temperature Dewpoint
23°C / 73°F 20°C / 68°F
Humidity Altimeter Pressure
83% 29.91" Hg 1013 hPa